sensor_id;sensor_type;location;lat;lon;timestamp;pressure;altitude;pressure_sealevel;temperature;humidity
60479;BME280;46321;48.398;11.754;2023-05-23T00:00:35;96207.97;;;17.15;65.14
60479;BME280;46321;48.398;11.754;2023-05-23T00:03:01;96198.50;;;17.13;65.63
60479;BME280;46321;48.398;11.754;2023-05-23T00:05:26;96198.75;;;17.11;66.57
60479;BME280;46321;48.398;11.754;2023-05-23T00:07:53;96199.63;;;17.05;66.56
60479;BME280;46321;48.398;11.754;2023-05-23T00:10:18;96202.00;;;16.94;67.39
60479;BME280;46321;48.398;11.754;2023-05-23T00:12:43;96198.50;;;16.94;67.42
60479;BME280;46321;48.398;11.754;2023-05-23T00:15:12;96206.00;;;16.85;67.65
60479;BME280;46321;48.398;11.754;2023-05-23T00:17:37;96209.28;;;16.87;67.27
60479;BME280;46321;48.398;11.754;2023-05-23T00:20:04;96211.28;;;16.92;66.95
60479;BME280;46321;48.398;11.754;2023-05-23T00:22:29;96211.09;;;16.93;66.86
60479;BME280;46321;48.398;11.754;2023-05-23T00:24:54;96209.19;;;16.94;66.64
60479;BME280;46321;48.398;11.754;2023-05-23T00:27:22;96211.09;;;16.93;66.80
60479;BME280;46321;48.398;11.754;2023-05-23T00:29:47;96208.25;;;16.88;66.85
60479;BME280;46321;48.398;11.754;2023-05-23T00:32:12;96202.97;;;16.81;67.39
60479;BME280;46321;48.398;11.754;2023-05-23T00:34:37;96205.66;;;16.81;67.09
60479;BME280;46321;48.398;11.754;2023-05-23T00:37:03;96202.38;;;16.79;67.39
60479;BME280;46321;48.398;11.754;2023-05-23T00:39:29;96208.56;;;16.80;67.62
60479;BME280;46321;48.398;11.754;2023-05-23T00:41:54;96213.44;;;16.83;67.21
60479;BME280;46321;48.398;11.754;2023-05-23T00:44:20;96212.69;;;16.76;67.95
60479;BME280;46321;48.398;11.754;2023-05-23T00:46:48;96220.69;;;16.76;67.77
60479;BME280;46321;48.398;11.754;2023-05-23T00:49:15;96215.16;;;16.77;67.60
60479;BME280;46321;48.398;11.754;2023-05-23T00:51:44;96213.72;;;16.75;68.01
60479;BME280;46321;48.398;11.754;2023-05-23T00:54:10;96214.09;;;16.78;67.54
60479;BME280;46321;48.398;11.754;2023-05-23T00:56:37;96220.25;;;16.79;67.87
60479;BME280;46321;48.398;11.754;2023-05-23T00:59:04;96215.34;;;16.76;67.59
60479;BME280;46321;48.398;11.754;2023-05-23T01:01:30;96217.38;;;16.80;67.74
60479;BME280;46321;48.398;11.754;2023-05-23T01:03:56;96212.78;;;16.88;67.35
60479;BME280;46321;48.398;11.754;2023-05-23T01:06:22;96222.63;;;16.87;67.70
60479;BME280;46321;48.398;11.754;2023-05-23T01:08:47;96216.78;;;16.78;67.93
60479;BME280;46321;48.398;11.754;2023-05-23T01:11:27;96217.75;;;16.84;67.97
60479;BME280;46321;48.398;11.754;2023-05-23T01:14:00;96228.44;;;16.84;68.30
60479;BME280;46321;48.398;11.754;2023-05-23T01:16:40;96222.94;;;16.79;68.22
60479;BME280;46321;48.398;11.754;2023-05-23T01:21:59;96219.50;;;16.71;68.83
60479;BME280;46321;48.398;11.754;2023-05-23T01:24:35;96227.53;;;16.71;69.19
60479;BME280;46321;48.398;11.754;2023-05-23T01:29:53;96222.84;;;16.67;69.34
60479;BME280;46321;48.398;11.754;2023-05-23T01:32:21;96227.75;;;16.70;69.22
60479;BME280;46321;48.398;11.754;2023-05-23T01:34:47;96230.66;;;16.68;69.14
60479;BME280;46321;48.398;11.754;2023-05-23T01:37:13;96229.41;;;16.71;69.60
60479;BME280;46321;48.398;11.754;2023-05-23T01:39:43;96225.91;;;16.70;69.72
60479;BME280;46321;48.398;11.754;2023-05-23T01:42:09;96229.41;;;16.71;69.53
60479;BME280;46321;48.398;11.754;2023-05-23T01:44:35;96235.13;;;16.75;69.75
60479;BME280;46321;48.398;11.754;2023-05-23T01:47:06;96239.28;;;16.70;69.81
60479;BME280;46321;48.398;11.754;2023-05-23T01:49:33;96238.38;;;16.77;69.56
60479;BME280;46321;48.398;11.754;2023-05-23T01:52:00;96241.47;;;16.74;69.76
60479;BME280;46321;48.398;11.754;2023-05-23T01:54:26;96242.75;;;16.71;69.96
60479;BME280;46321;48.398;11.754;2023-05-23T01:56:55;96242.06;;;16.76;69.87
60479;BME280;46321;48.398;11.754;2023-05-23T01:59:21;96240.88;;;16.71;70.26
60479;BME280;46321;48.398;11.754;2023-05-23T02:01:46;96244.75;;;16.76;70.49
60479;BME280;46321;48.398;11.754;2023-05-23T02:04:12;96244.91;;;16.81;70.17
60479;BME280;46321;48.398;11.754;2023-05-23T02:06:37;96247.75;;;16.86;70.31
60479;BME280;46321;48.398;11.754;2023-05-23T02:09:03;96248.34;;;16.88;69.96
60479;BME280;46321;48.398;11.754;2023-05-23T02:11:28;96249.81;;;16.84;70.36
60479;BME280;46321;48.398;11.754;2023-05-23T02:13:53;96252.28;;;16.86;70.21
60479;BME280;46321;48.398;11.754;2023-05-23T02:16:18;96251.44;;;16.85;70.36
60479;BME280;46321;48.398;11.754;2023-05-23T02:18:44;96249.00;;;16.83;70.82
60479;BME280;46321;48.398;11.754;2023-05-23T02:21:10;96246.16;;;16.78;70.99
60479;BME280;46321;48.398;11.754;2023-05-23T02:23:35;96244.97;;;16.74;70.95
60479;BME280;46321;48.398;11.754;2023-05-23T02:26:00;96251.31;;;16.80;71.05
60479;BME280;46321;48.398;11.754;2023-05-23T02:28:26;96254.78;;;16.80;70.89
60479;BME280;46321;48.398;11.754;2023-05-23T02:30:51;96249.06;;;16.77;71.08
60479;BME280;46321;48.398;11.754;2023-05-23T02:33:16;96254.41;;;16.77;70.89
60479;BME280;46321;48.398;11.754;2023-05-23T02:35:42;96253.38;;;16.78;71.41
60479;BME280;46321;48.398;11.754;2023-05-23T02:38:07;96249.50;;;16.74;71.01
60479;BME280;46321;48.398;11.754;2023-05-23T02:40:32;96253.66;;;16.69;71.74
60479;BME280;46321;48.398;11.754;2023-05-23T02:42:57;96246.75;;;16.62;72.21
60479;BME280;46321;48.398;11.754;2023-05-23T02:45:23;96260.53;;;16.58;72.24
60479;BME280;46321;48.398;11.754;2023-05-23T02:47:48;96257.31;;;16.50;72.78
60479;BME280;46321;48.398;11.754;2023-05-23T02:50:14;96254.06;;;16.47;72.33
60479;BME280;46321;48.398;11.754;2023-05-23T02:52:40;96262.25;;;16.53;72.32
60479;BME280;46321;48.398;11.754;2023-05-23T02:55:06;96255.72;;;16.48;72.12
60479;BME280;46321;48.398;11.754;2023-05-23T02:57:32;96262.50;;;16.44;72.84
60479;BME280;46321;48.398;11.754;2023-05-23T02:59:57;96265.84;;;16.40;73.30
60479;BME280;46321;48.398;11.754;2023-05-23T03:02:22;96272.03;;;16.33;73.69
60479;BME280;46321;48.398;11.754;2023-05-23T03:04:48;96272.28;;;16.32;73.72
60479;BME280;46321;48.398;11.754;2023-05-23T03:07:13;96282.34;;;16.30;73.55
60479;BME280;46321;48.398;11.754;2023-05-23T03:09:39;96286.22;;;16.34;73.36
60479;BME280;46321;48.398;11.754;2023-05-23T03:12:05;96280.50;;;16.30;73.38
60479;BME280;46321;48.398;11.754;2023-05-23T03:14:30;96279.91;;;16.28;74.07
60479;BME280;46321;48.398;11.754;2023-05-23T03:16:55;96271.91;;;16.28;73.44
60479;BME280;46321;48.398;11.754;2023-05-23T03:19:21;96266.00;;;16.19;73.93
60479;BME280;46321;48.398;11.754;2023-05-23T03:21:46;96271.16;;;16.14;74.00
60479;BME280;46321;48.398;11.754;2023-05-23T03:24:14;96264.19;;;16.13;74.31
60479;BME280;46321;48.398;11.754;2023-05-23T03:26:39;96258.84;;;16.13;73.92
60479;BME280;46321;48.398;11.754;2023-05-23T03:29:05;96261.72;;;16.11;74.13
60479;BME280;46321;48.398;11.754;2023-05-23T03:31:31;96268.69;;;16.19;73.89
60479;BME280;46321;48.398;11.754;2023-05-23T03:33:56;96259.94;;;16.05;74.49
60479;BME280;46321;48.398;11.754;2023-05-23T03:36:21;96262.19;;;16.08;74.44
60479;BME280;46321;48.398;11.754;2023-05-23T03:38:50;96252.34;;;15.95;74.96
60479;BME280;46321;48.398;11.754;2023-05-23T03:41:15;96261.41;;;15.94;74.80
60479;BME280;46321;48.398;11.754;2023-05-23T03:43:40;96264.91;;;15.95;74.66
60479;BME280;46321;48.398;11.754;2023-05-23T03:46:05;96265.59;;;15.83;75.84
60479;BME280;46321;48.398;11.754;2023-05-23T03:48:31;96275.03;;;15.86;75.42
60479;BME280;46321;48.398;11.754;2023-05-23T03:50:56;96263.34;;;15.80;76.08
60479;BME280;46321;48.398;11.754;2023-05-23T03:53:22;96265.41;;;15.78;76.30
60479;BME280;46321;48.398;11.754;2023-05-23T03:55:47;96268.44;;;15.82;76.26
60479;BME280;46321;48.398;11.754;2023-05-23T03:58:12;96265.03;;;15.74;76.23
60479;BME280;46321;48.398;11.754;2023-05-23T04:00:37;96278.66;;;15.59;76.80
60479;BME280;46321;48.398;11.754;2023-05-23T04:03:03;96285.56;;;15.67;76.50
60479;BME280;46321;48.398;11.754;2023-05-23T04:05:28;96288.88;;;15.62;76.39
60479;BME280;46321;48.398;11.754;2023-05-23T04:07:54;96285.56;;;15.67;76.51
60479;BME280;46321;48.398;11.754;2023-05-23T04:10:19;96296.47;;;15.65;76.15
60479;BME280;46321;48.398;11.754;2023-05-23T04:12:44;96292.78;;;15.60;76.59
60479;BME280;46321;48.398;11.754;2023-05-23T04:15:10;96292.97;;;15.65;76.64
60479;BME280;46321;48.398;11.754;2023-05-23T04:17:35;96290.94;;;15.60;76.97
60479;BME280;46321;48.398;11.754;2023-05-23T04:20:05;96298.75;;;15.55;77.29
60479;BME280;46321;48.398;11.754;2023-05-23T04:22:30;96299.59;;;15.49;77.84
60479;BME280;46321;48.398;11.754;2023-05-23T04:24:55;96302.69;;;15.52;77.32
60479;BME280;46321;48.398;11.754;2023-05-23T04:27:21;96304.50;;;15.59;77.50
60479;BME280;46321;48.398;11.754;2023-05-23T04:29:46;96308.56;;;15.68;77.30
60479;BME280;46321;48.398;11.754;2023-05-23T04:32:12;96308.97;;;15.72;77.02
60479;BME280;46321;48.398;11.754;2023-05-23T04:34:37;96308.97;;;15.65;77.20
60479;BME280;46321;48.398;11.754;2023-05-23T04:37:05;96308.13;;;15.71;77.55
60479;BME280;46321;48.398;11.754;2023-05-23T04:39:31;96315.88;;;15.79;76.78
60479;BME280;46321;48.398;11.754;2023-05-23T04:41:56;96308.88;;;15.85;76.19
60479;BME280;46321;48.398;11.754;2023-05-23T04:44:24;96312.56;;;15.84;76.44
60479;BME280;46321;48.398;11.754;2023-05-23T04:46:54;96321.03;;;15.81;76.63
60479;BME280;46321;48.398;11.754;2023-05-23T04:49:20;96324.69;;;15.87;76.88
60479;BME280;46321;48.398;11.754;2023-05-23T04:51:46;96315.81;;;15.93;76.92
60479;BME280;46321;48.398;11.754;2023-05-23T04:54:12;96317.47;;;15.94;76.83
60479;BME280;46321;48.398;11.754;2023-05-23T04:56:37;96322.75;;;16.01;77.19
60479;BME280;46321;48.398;11.754;2023-05-23T04:59:03;96322.75;;;16.01;77.15
60479;BME280;46321;48.398;11.754;2023-05-23T05:01:28;96320.13;;;15.94;77.69
60479;BME280;46321;48.398;11.754;2023-05-23T05:03:53;96320.31;;;15.99;77.51
60479;BME280;46321;48.398;11.754;2023-05-23T05:06:19;96313.31;;;16.05;77.81
60479;BME280;46321;48.398;11.754;2023-05-23T05:08:45;96317.78;;;16.11;77.80
60479;BME280;46321;48.398;11.754;2023-05-23T05:11:11;96322.06;;;16.19;77.47
60479;BME280;46321;48.398;11.754;2023-05-23T05:13:36;96319.19;;;16.21;77.37
60479;BME280;46321;48.398;11.754;2023-05-23T05:16:01;96326.09;;;16.29;77.50
60479;BME280;46321;48.398;11.754;2023-05-23T05:18:28;96323.47;;;16.22;78.41
60479;BME280;46321;48.398;11.754;2023-05-23T05:20:54;96337.56;;;16.36;77.92
60479;BME280;46321;48.398;11.754;2023-05-23T05:23:23;96343.91;;;16.42;77.70
60479;BME280;46321;48.398;11.754;2023-05-23T05:25:48;96347.09;;;16.57;77.45
60479;BME280;46321;48.398;11.754;2023-05-23T05:28:14;96342.47;;;16.65;77.11
60479;BME280;46321;48.398;11.754;2023-05-23T05:30:40;96342.78;;;16.82;76.61
60479;BME280;46321;48.398;11.754;2023-05-23T05:33:06;96339.94;;;16.77;76.92
60479;BME280;46321;48.398;11.754;2023-05-23T05:35:32;96341.00;;;16.94;76.30
60479;BME280;46321;48.398;11.754;2023-05-23T05:37:58;96348.31;;;17.06;75.62
60479;BME280;46321;48.398;11.754;2023-05-23T05:40:24;96344.81;;;17.05;76.20
60479;BME280;46321;48.398;11.754;2023-05-23T05:42:49;96345.06;;;17.23;75.91
60479;BME280;46321;48.398;11.754;2023-05-23T05:45:15;96342.13;;;17.31;75.36
60479;BME280;46321;48.398;11.754;2023-05-23T05:47:40;96357.88;;;17.39;75.14
60479;BME280;46321;48.398;11.754;2023-05-23T05:50:07;96352.31;;;17.60;74.85
60479;BME280;46321;48.398;11.754;2023-05-23T05:52:34;96355.81;;;17.60;74.38
60479;BME280;46321;48.398;11.754;2023-05-23T05:55:07;96345.69;;;17.62;74.25
60479;BME280;46321;48.398;11.754;2023-05-23T05:57:35;96356.75;;;17.85;74.12
60479;BME280;46321;48.398;11.754;2023-05-23T06:00:04;96356.53;;;17.87;73.95
60479;BME280;46321;48.398;11.754;2023-05-23T06:02:36;96352.94;;;17.93;73.69
60479;BME280;46321;48.398;11.754;2023-05-23T06:05:01;96354.00;;;17.92;73.59
60479;BME280;46321;48.398;11.754;2023-05-23T06:07:26;96355.09;;;18.03;72.98
60479;BME280;46321;48.398;11.754;2023-05-23T06:09:51;96367.91;;;18.13;72.48
60479;BME280;46321;48.398;11.754;2023-05-23T06:12:17;96364.16;;;18.21;72.60
60479;BME280;46321;48.398;11.754;2023-05-23T06:14:42;96364.88;;;18.28;72.01
60479;BME280;46321;48.398;11.754;2023-05-23T06:17:07;96363.72;;;18.36;72.15
60479;BME280;46321;48.398;11.754;2023-05-23T06:19:33;96360.00;;;18.37;71.97
60479;BME280;46321;48.398;11.754;2023-05-23T06:21:59;96359.81;;;18.62;71.88
60479;BME280;46321;48.398;11.754;2023-05-23T06:24:24;96363.69;;;18.79;71.90
60479;BME280;46321;48.398;11.754;2023-05-23T06:26:49;96362.66;;;19.04;71.21
60479;BME280;46321;48.398;11.754;2023-05-23T06:29:14;96367.91;;;19.10;70.20
60479;BME280;46321;48.398;11.754;2023-05-23T06:31:40;96362.22;;;19.19;69.86
60479;BME280;46321;48.398;11.754;2023-05-23T06:34:05;96355.19;;;19.54;69.35
60479;BME280;46321;48.398;11.754;2023-05-23T06:36:30;96368.13;;;19.69;68.65
60479;BME280;46321;48.398;11.754;2023-05-23T06:38:55;96372.41;;;19.70;67.69
60479;BME280;46321;48.398;11.754;2023-05-23T06:41:21;96366.34;;;19.75;67.06
60479;BME280;46321;48.398;11.754;2023-05-23T06:43:46;96367.13;;;19.87;66.92
60479;BME280;46321;48.398;11.754;2023-05-23T06:46:12;96371.44;;;19.88;66.59
60479;BME280;46321;48.398;11.754;2023-05-23T06:48:37;96364.25;;;20.06;67.01
60479;BME280;46321;48.398;11.754;2023-05-23T06:51:02;96366.69;;;20.20;66.42
60479;BME280;46321;48.398;11.754;2023-05-23T06:53:27;96374.34;;;20.28;65.61
60479;BME280;46321;48.398;11.754;2023-05-23T06:55:53;96373.09;;;20.48;65.44
60479;BME280;46321;48.398;11.754;2023-05-23T06:58:18;96374.22;;;20.52;64.66
60479;BME280;46321;48.398;11.754;2023-05-23T07:00:43;96380.16;;;20.54;64.44
60479;BME280;46321;48.398;11.754;2023-05-23T07:03:08;96378.81;;;20.86;63.44
60479;BME280;46321;48.398;11.754;2023-05-23T07:05:34;96372.16;;;20.71;63.51
60479;BME280;46321;48.398;11.754;2023-05-23T07:08:00;96380.47;;;21.04;62.63
60479;BME280;46321;48.398;11.754;2023-05-23T07:10:26;96380.72;;;21.20;62.95
60479;BME280;46321;48.398;11.754;2023-05-23T07:12:51;96389.19;;;21.29;62.03
60479;BME280;46321;48.398;11.754;2023-05-23T07:15:16;96371.41;;;21.11;60.82
60479;BME280;46321;48.398;11.754;2023-05-23T07:17:42;96384.31;;;21.48;60.53
60479;BME280;46321;48.398;11.754;2023-05-23T07:20:08;96387.88;;;21.32;61.06
60479;BME280;46321;48.398;11.754;2023-05-23T07:22:33;96383.38;;;21.37;60.05
60479;BME280;46321;48.398;11.754;2023-05-23T07:24:58;96387.78;;;21.44;59.61
60479;BME280;46321;48.398;11.754;2023-05-23T07:27:25;96377.69;;;21.56;59.84
60479;BME280;46321;48.398;11.754;2023-05-23T07:29:50;96385.31;;;21.82;59.33
60479;BME280;46321;48.398;11.754;2023-05-23T07:32:17;96383.16;;;21.84;57.98
60479;BME280;46321;48.398;11.754;2023-05-23T07:34:42;96379.50;;;21.90;58.96
60479;BME280;46321;48.398;11.754;2023-05-23T07:37:07;96383.41;;;22.05;58.07
60479;BME280;46321;48.398;11.754;2023-05-23T07:39:32;96384.22;;;22.28;58.30
60479;BME280;46321;48.398;11.754;2023-05-23T07:41:58;96376.53;;;22.42;57.93
60479;BME280;46321;48.398;11.754;2023-05-23T07:44:23;96382.50;;;22.44;57.09
60479;BME280;46321;48.398;11.754;2023-05-23T07:46:48;96383.94;;;22.57;56.87
60479;BME280;46321;48.398;11.754;2023-05-23T07:49:14;96381.31;;;22.62;56.90
60479;BME280;46321;48.398;11.754;2023-05-23T07:51:39;96386.94;;;22.61;56.89
60479;BME280;46321;48.398;11.754;2023-05-23T07:54:05;96390.66;;;22.54;57.56
60479;BME280;46321;48.398;11.754;2023-05-23T07:56:31;96380.59;;;22.72;56.18
60479;BME280;46321;48.398;11.754;2023-05-23T07:58:56;96389.25;;;22.47;56.61
60479;BME280;46321;48.398;11.754;2023-05-23T08:01:21;96377.34;;;22.42;56.75
60479;BME280;46321;48.398;11.754;2023-05-23T08:03:48;96389.97;;;22.37;57.06
60479;BME280;46321;48.398;11.754;2023-05-23T08:06:14;96392.03;;;22.29;57.14
60479;BME280;46321;48.398;11.754;2023-05-23T08:08:39;96397.00;;;22.38;57.40
60479;BME280;46321;48.398;11.754;2023-05-23T08:11:05;96394.25;;;22.60;55.99
60479;BME280;46321;48.398;11.754;2023-05-23T08:13:30;96391.75;;;22.03;57.08
60479;BME280;46321;48.398;11.754;2023-05-23T08:15:55;96390.94;;;22.03;58.28
60479;BME280;46321;48.398;11.754;2023-05-23T08:18:21;96396.13;;;22.60;56.55
60479;BME280;46321;48.398;11.754;2023-05-23T08:20:46;96388.41;;;22.69;55.68
60479;BME280;46321;48.398;11.754;2023-05-23T08:23:11;96398.34;;;22.96;55.90
60479;BME280;46321;48.398;11.754;2023-05-23T08:25:38;96402.38;;;22.98;53.80
60479;BME280;46321;48.398;11.754;2023-05-23T08:28:03;96405.13;;;23.04;54.29
60479;BME280;46321;48.398;11.754;2023-05-23T08:30:29;96404.19;;;23.26;54.33
60479;BME280;46321;48.398;11.754;2023-05-23T08:32:55;96402.50;;;22.76;55.56
60479;BME280;46321;48.398;11.754;2023-05-23T08:35:21;96410.53;;;23.04;55.21
60479;BME280;46321;48.398;11.754;2023-05-23T08:37:47;96410.81;;;22.69;54.26
60479;BME280;46321;48.398;11.754;2023-05-23T08:40:13;96422.56;;;22.91;54.40
60479;BME280;46321;48.398;11.754;2023-05-23T08:42:42;96419.81;;;22.85;55.09
60479;BME280;46321;48.398;11.754;2023-05-23T08:45:08;96417.88;;;22.81;54.44
60479;BME280;46321;48.398;11.754;2023-05-23T08:47:35;96416.13;;;22.97;53.72
60479;BME280;46321;48.398;11.754;2023-05-23T08:50:04;96424.31;;;22.74;54.28
60479;BME280;46321;48.398;11.754;2023-05-23T08:52:31;96430.66;;;22.63;54.40
60479;BME280;46321;48.398;11.754;2023-05-23T08:54:59;96423.00;;;22.77;55.09
60479;BME280;46321;48.398;11.754;2023-05-23T08:57:24;96416.13;;;22.92;54.98
60479;BME280;46321;48.398;11.754;2023-05-23T08:59:50;96416.00;;;22.76;55.28
60479;BME280;46321;48.398;11.754;2023-05-23T09:02:16;96422.94;;;22.72;55.33
60479;BME280;46321;48.398;11.754;2023-05-23T09:04:42;96423.03;;;23.15;54.95
60479;BME280;46321;48.398;11.754;2023-05-23T09:07:08;96425.56;;;22.67;56.96
60479;BME280;46321;48.398;11.754;2023-05-23T09:09:34;96426.38;;;22.95;55.18
60479;BME280;46321;48.398;11.754;2023-05-23T09:11:59;96430.47;;;22.70;55.10
60479;BME280;46321;48.398;11.754;2023-05-23T09:14:27;96426.56;;;23.16;54.64
60479;BME280;46321;48.398;11.754;2023-05-23T09:16:59;96421.09;;;23.10;55.20
60479;BME280;46321;48.398;11.754;2023-05-23T09:19:25;96416.41;;;23.72;52.94
60479;BME280;46321;48.398;11.754;2023-05-23T09:21:52;96415.59;;;23.76;52.30
60479;BME280;46321;48.398;11.754;2023-05-23T09:24:18;96417.28;;;23.93;51.84
60479;BME280;46321;48.398;11.754;2023-05-23T09:26:46;96418.38;;;23.92;51.95
60479;BME280;46321;48.398;11.754;2023-05-23T09:29:12;96425.31;;;23.77;51.71
60479;BME280;46321;48.398;11.754;2023-05-23T09:31:37;96422.63;;;23.72;51.52
60479;BME280;46321;48.398;11.754;2023-05-23T09:34:03;96422.81;;;24.19;50.69
60479;BME280;46321;48.398;11.754;2023-05-23T09:36:28;96423.19;;;24.44;51.22
60479;BME280;46321;48.398;11.754;2023-05-23T09:39:01;96429.34;;;24.23;51.27
60479;BME280;46321;48.398;11.754;2023-05-23T09:41:29;96430.22;;;24.71;50.02
60479;BME280;46321;48.398;11.754;2023-05-23T09:43:56;96423.78;;;23.97;50.73
60479;BME280;46321;48.398;11.754;2023-05-23T09:46:27;96428.56;;;23.74;51.06
60479;BME280;46321;48.398;11.754;2023-05-23T09:48:52;96437.59;;;23.47;51.77
60479;BME280;46321;48.398;11.754;2023-05-23T09:51:21;96440.75;;;23.39;51.90
60479;BME280;46321;48.398;11.754;2023-05-23T09:53:47;96432.38;;;23.40;51.96
60479;BME280;46321;48.398;11.754;2023-05-23T09:56:15;96444.56;;;23.43;52.20
60479;BME280;46321;48.398;11.754;2023-05-23T09:58:45;96434.03;;;23.90;51.25
60479;BME280;46321;48.398;11.754;2023-05-23T10:01:12;96432.13;;;23.85;50.87
60479;BME280;46321;48.398;11.754;2023-05-23T10:03:44;96432.59;;;23.72;50.65
60479;BME280;46321;48.398;11.754;2023-05-23T10:06:17;96432.38;;;23.84;51.20
60479;BME280;46321;48.398;11.754;2023-05-23T10:08:51;96432.47;;;23.51;50.77
60479;BME280;46321;48.398;11.754;2023-05-23T10:11:53;96431.31;;;23.41;51.37
60479;BME280;46321;48.398;11.754;2023-05-23T10:14:25;96437.22;;;23.00;52.15
60479;BME280;46321;48.398;11.754;2023-05-23T10:17:17;96429.09;;;22.67;51.78
60479;BME280;46321;48.398;11.754;2023-05-23T10:19:57;96426.22;;;23.07;51.62
60479;BME280;46321;48.398;11.754;2023-05-23T10:22:25;96434.94;;;23.19;50.73
60479;BME280;46321;48.398;11.754;2023-05-23T10:24:51;96419.69;;;23.79;50.56
60479;BME280;46321;48.398;11.754;2023-05-23T10:27:17;96421.69;;;24.15;49.62
60479;BME280;46321;48.398;11.754;2023-05-23T10:29:43;96411.53;;;24.54;49.09
60479;BME280;46321;48.398;11.754;2023-05-23T10:32:10;96415.63;;;24.88;48.33
60479;BME280;46321;48.398;11.754;2023-05-23T10:34:43;96412.66;;;24.95;48.28
60479;BME280;46321;48.398;11.754;2023-05-23T10:38:01;96422.38;;;24.69;47.77
60479;BME280;46321;48.398;11.754;2023-05-23T10:40:19;96414.53;;;24.52;49.31
60479;BME280;46321;48.398;11.754;2023-05-23T10:43:05;96418.94;;;25.11;47.86
60479;BME280;46321;48.398;11.754;2023-05-23T10:45:41;96405.09;;;25.07;48.68
60479;BME280;46321;48.398;11.754;2023-05-23T10:48:19;96408.91;;;25.22;47.69
60479;BME280;46321;48.398;11.754;2023-05-23T10:50:45;96400.78;;;25.22;47.36
60479;BME280;46321;48.398;11.754;2023-05-23T10:53:15;96406.38;;;25.57;47.67
60479;BME280;46321;48.398;11.754;2023-05-23T10:55:40;96406.09;;;25.64;46.63
60479;BME280;46321;48.398;11.754;2023-05-23T10:58:18;96399.13;;;25.26;46.73
60479;BME280;46321;48.398;11.754;2023-05-23T11:00:54;96392.59;;;25.43;46.60
60479;BME280;46321;48.398;11.754;2023-05-23T11:06:36;96399.97;;;25.06;46.00
60479;BME280;46321;48.398;11.754;2023-05-23T11:09:05;96394.78;;;25.35;45.97
60479;BME280;46321;48.398;11.754;2023-05-23T11:14:14;96396.38;;;25.52;45.75
60479;BME280;46321;48.398;11.754;2023-05-23T11:16:42;96392.88;;;25.52;45.53
60479;BME280;46321;48.398;11.754;2023-05-23T11:21:44;96391.75;;;25.58;45.00
60479;BME280;46321;48.398;11.754;2023-05-23T11:24:10;96383.34;;;25.59;46.41
60479;BME280;46321;48.398;11.754;2023-05-23T11:26:35;96388.03;;;25.27;45.56
60479;BME280;46321;48.398;11.754;2023-05-23T11:29:01;96392.09;;;25.14;46.14
60479;BME280;46321;48.398;11.754;2023-05-23T11:31:28;96380.47;;;25.14;46.96
60479;BME280;46321;48.398;11.754;2023-05-23T11:33:54;96377.19;;;25.33;43.90
60479;BME280;46321;48.398;11.754;2023-05-23T11:36:23;96386.69;;;25.20;45.20
60479;BME280;46321;48.398;11.754;2023-05-23T11:38:51;96380.97;;;25.32;44.13
60479;BME280;46321;48.398;11.754;2023-05-23T11:41:17;96388.28;;;25.47;44.21
60479;BME280;46321;48.398;11.754;2023-05-23T11:43:51;96394.81;;;24.99;45.44
60479;BME280;46321;48.398;11.754;2023-05-23T11:46:17;96388.84;;;24.91;45.70
60479;BME280;46321;48.398;11.754;2023-05-23T11:48:45;96387.50;;;24.94;47.14
60479;BME280;46321;48.398;11.754;2023-05-23T11:51:11;96388.06;;;25.07;46.06
60479;BME280;46321;48.398;11.754;2023-05-23T11:53:37;96391.06;;;25.00;45.92
60479;BME280;46321;48.398;11.754;2023-05-23T11:56:02;96375.06;;;24.62;45.33
60479;BME280;46321;48.398;11.754;2023-05-23T11:58:30;96382.88;;;24.89;45.75
60479;BME280;46321;48.398;11.754;2023-05-23T12:01:06;96385.59;;;24.79;45.72
60479;BME280;46321;48.398;11.754;2023-05-23T12:03:33;96382.09;;;24.84;46.69
60479;BME280;46321;48.398;11.754;2023-05-23T12:05:59;96385.06;;;25.03;45.51
60479;BME280;46321;48.398;11.754;2023-05-23T12:08:26;96376.69;;;24.84;46.16
60479;BME280;46321;48.398;11.754;2023-05-23T12:10:59;96391.81;;;24.90;44.90
60479;BME280;46321;48.398;11.754;2023-05-23T12:13:29;96392.63;;;24.90;44.37
60479;BME280;46321;48.398;11.754;2023-05-23T12:15:55;96391.56;;;24.70;45.25
60479;BME280;46321;48.398;11.754;2023-05-23T12:18:21;96387.50;;;24.73;44.94
60479;BME280;46321;48.398;11.754;2023-05-23T12:20:50;96396.44;;;24.79;45.00
60479;BME280;46321;48.398;11.754;2023-05-23T12:23:22;96393.72;;;24.74;44.82
60479;BME280;46321;48.398;11.754;2023-05-23T12:25:52;96396.16;;;24.70;44.62
60479;BME280;46321;48.398;11.754;2023-05-23T12:28:18;96390.75;;;24.59;44.74
60479;BME280;46321;48.398;11.754;2023-05-23T12:30:44;96390.47;;;24.72;44.98
60479;BME280;46321;48.398;11.754;2023-05-23T12:33:10;96393.16;;;24.72;45.37
60479;BME280;46321;48.398;11.754;2023-05-23T12:35:36;96400.72;;;24.54;46.44
60479;BME280;46321;48.398;11.754;2023-05-23T12:38:04;96395.28;;;24.33;45.99
60479;BME280;46321;48.398;11.754;2023-05-23T12:40:31;96389.63;;;24.34;45.99
60479;BME280;46321;48.398;11.754;2023-05-23T12:42:56;96396.41;;;24.53;45.98
60479;BME280;46321;48.398;11.754;2023-05-23T12:45:23;96395.31;;;24.54;45.77
60479;BME280;46321;48.398;11.754;2023-05-23T12:47:49;96391.78;;;24.53;44.91
60479;BME280;46321;48.398;11.754;2023-05-23T12:50:15;96389.91;;;24.54;45.18
60479;BME280;46321;48.398;11.754;2023-05-23T12:52:40;96398.03;;;24.54;46.15
60479;BME280;46321;48.398;11.754;2023-05-23T12:55:07;96389.81;;;24.22;46.43
60479;BME280;46321;48.398;11.754;2023-05-23T12:57:33;96396.41;;;24.47;46.79
60479;BME280;46321;48.398;11.754;2023-05-23T12:59:59;96386.69;;;24.57;45.22
60479;BME280;46321;48.398;11.754;2023-05-23T13:02:26;96390.22;;;24.73;44.54